createdAt,value
2022-09-23T00:02:46.459Z,81.06
2022-09-23T00:08:18.081Z,81.17
2022-09-23T00:13:49.766Z,82.11
2022-09-23T00:19:21.517Z,82.33
2022-09-23T00:24:53.224Z,83.35
2022-09-23T00:30:25.067Z,83.0
2022-09-23T00:35:56.669Z,84.22
2022-09-23T00:41:32.880Z,85.16
2022-09-23T00:47:04.525Z,85.85
2022-09-23T00:52:36.202Z,86.03
2022-09-23T00:58:07.921Z,86.31
2022-09-23T01:03:39.703Z,86.99
2022-09-23T01:09:11.420Z,87.11
2022-09-23T01:14:43.154Z,87.07
2022-09-23T01:20:14.941Z,86.82
2022-09-23T01:25:46.603Z,86.9
2022-09-23T01:31:18.365Z,86.68
2022-09-23T01:36:50.073Z,86.79
2022-09-23T01:42:26.345Z,87.17
2022-09-23T01:47:57.990Z,87.57
2022-09-23T01:53:29.582Z,87.62
2022-09-23T01:59:01.303Z,88.18
2022-09-23T02:04:33.050Z,88.22
2022-09-23T02:10:04.722Z,87.94
2022-09-23T02:15:36.456Z,88.12
2022-09-23T02:21:08.163Z,88.1
2022-09-23T02:26:39.913Z,88.43
2022-09-23T02:32:11.693Z,88.33
2022-09-23T02:37:43.360Z,88.05
2022-09-23T02:43:19.472Z,88.33
2022-09-23T02:48:51.175Z,88.98
2022-09-23T02:54:22.895Z,89.01
2022-09-23T02:59:54.626Z,88.82
2022-09-23T03:05:26.333Z,89.43
2022-09-23T03:10:58.073Z,89.0
2022-09-23T03:16:29.938Z,88.78
2022-09-23T03:22:01.567Z,88.26
2022-09-23T03:27:33.260Z,88.01
2022-09-23T03:33:04.957Z,88.1
2022-09-23T03:38:36.636Z,88.42
2022-09-23T03:44:12.879Z,87.88
2022-09-23T03:49:44.571Z,88.21
2022-09-23T03:55:16.387Z,88.31
2022-09-23T04:00:48.130Z,88.55
2022-09-23T04:06:19.773Z,88.73
2022-09-23T04:11:51.474Z,89.5
2022-09-23T04:17:23.290Z,88.98
2022-09-23T04:22:54.965Z,89.23
2022-09-23T04:28:26.566Z,88.93
2022-09-23T04:33:58.414Z,90.04
2022-09-23T04:39:30.114Z,89.14
2022-09-23T04:45:06.230Z,88.45
2022-09-23T04:50:37.986Z,88.91
2022-09-23T04:56:09.702Z,88.9
2022-09-23T05:01:41.675Z,89.24
2022-09-23T05:07:13.187Z,88.65
2022-09-23T05:12:44.873Z,88.79
2022-09-23T05:18:21.083Z,88.93
2022-09-23T05:23:48.453Z,88.83
2022-09-23T05:29:20.201Z,88.44
2022-09-23T05:34:51.957Z,88.59
2022-09-23T05:40:23.864Z,88.43
2022-09-23T05:45:59.867Z,89.02
2022-09-23T05:51:32.089Z,89.23
2022-09-23T05:57:05.581Z,88.91
2022-09-23T06:02:35.172Z,89.32
2022-09-23T06:08:06.862Z,89.51
2022-09-23T06:13:38.629Z,88.83
2022-09-23T06:19:10.207Z,88.86
2022-09-23T06:24:41.985Z,88.87
2022-09-23T06:30:13.726Z,88.7
2022-09-23T06:35:59.166Z,87.82
2022-09-23T06:41:17.177Z,87.16
2022-09-23T06:46:55.404Z,87.21
2022-09-23T06:52:27.005Z,87.27
2022-09-23T06:57:58.708Z,86.21
2022-09-23T07:03:30.453Z,84.88
2022-09-23T07:09:02.201Z,84.19
2022-09-23T07:14:33.861Z,82.99
2022-09-23T07:20:05.622Z,82.45
2022-09-23T07:25:37.296Z,81.37
2022-09-23T07:31:09.082Z,82.8
2022-09-23T07:36:41.128Z,82.54
2022-09-23T07:42:12.477Z,80.04
2022-09-23T07:47:50.622Z,80.2
2022-09-23T07:53:22.343Z,79.35
2022-09-23T07:58:54.079Z,80.29
2022-09-23T08:04:25.782Z,78.36
2022-09-23T08:09:57.501Z,78.87
2022-09-23T08:15:29.322Z,79.07
2022-09-23T08:21:00.939Z,78.0
2022-09-23T08:26:32.605Z,78.93
2022-09-23T08:32:04.389Z,78.45
2022-09-23T08:37:36.250Z,78.15
2022-09-23T08:43:07.852Z,77.87
2022-09-23T08:48:43.931Z,77.46
2022-09-23T08:54:15.688Z,78.07
2022-09-23T08:59:47.437Z,76.97
2022-09-23T09:05:19.321Z,77.11
2022-09-23T09:10:51.029Z,77.15
2022-09-23T09:16:58.757Z,76.62
2022-09-23T09:21:54.225Z,75.42
2022-09-23T09:27:26.009Z,75.03
2022-09-23T09:32:57.747Z,74.58
2022-09-23T09:38:29.506Z,74.2
2022-09-23T09:44:01.332Z,74.96
2022-09-23T09:49:40.949Z,73.74
2022-09-23T09:55:08.971Z,73.22
2022-09-23T10:00:40.726Z,72.93
2022-09-23T10:06:12.750Z,72.93
2022-09-23T10:11:44.114Z,73.93
2022-09-23T10:17:15.838Z,72.55
2022-09-23T10:22:47.554Z,72.75
2022-09-23T10:28:19.284Z,71.82
2022-09-23T10:33:50.962Z,70.93
2022-09-23T10:39:22.845Z,70.86
2022-09-23T10:44:54.438Z,70.1
2022-09-23T10:50:30.548Z,69.24
2022-09-23T10:56:02.309Z,70.05
2022-09-23T11:01:34.085Z,73.18
2022-09-23T11:07:05.748Z,70.57
2022-09-23T11:12:37.497Z,68.41
2022-09-23T11:18:09.164Z,69.14
2022-09-23T11:23:41.141Z,68.51
2022-09-23T11:29:12.630Z,68.01
2022-09-23T11:34:44.435Z,67.56
2022-09-23T11:40:16.611Z,67.09
2022-09-23T11:45:48.098Z,67.18
2022-09-23T11:51:25.985Z,65.8
2022-09-23T11:56:57.655Z,66.63
2022-09-23T12:02:31.580Z,65.33
2022-09-23T12:08:01.196Z,66.63
2022-09-23T12:13:32.950Z,66.85
2022-09-23T12:19:04.853Z,65.1
2022-09-23T12:24:36.330Z,66.03
2022-09-23T12:30:08.256Z,68.73
2022-09-23T12:35:39.840Z,65.9
2022-09-23T12:41:11.576Z,65.17
2022-09-23T12:46:43.272Z,65.43
2022-09-23T12:52:19.507Z,65.21
2022-09-23T12:57:51.128Z,65.68
2022-09-23T13:03:23.055Z,65.93
2022-09-23T13:08:54.661Z,66.59
2022-09-23T13:14:28.167Z,64.99
2022-09-23T13:19:58.106Z,64.39
2022-09-23T13:25:29.878Z,64.73
2022-09-23T13:31:01.743Z,65.59
2022-09-23T13:36:33.333Z,66.61
2022-09-23T13:42:05.049Z,66.83
2022-09-23T13:47:36.740Z,66.05
2022-09-23T13:53:12.847Z,66.57
2022-09-23T13:58:44.583Z,66.15
2022-09-23T14:04:16.377Z,66.91
2022-09-23T14:09:48.089Z,65.74
2022-09-23T14:15:19.775Z,66.3
2022-09-23T14:20:51.493Z,66.07
2022-09-23T14:26:23.228Z,66.27
2022-09-23T14:31:55.131Z,68.15
2022-09-23T14:37:26.687Z,67.78
2022-09-23T14:42:58.406Z,69.1
2022-09-23T14:48:30.153Z,69.35
2022-09-23T14:54:08.296Z,69.19
2022-09-23T14:59:40.007Z,70.96
2022-09-23T15:05:11.798Z,71.38
2022-09-23T15:10:43.549Z,70.77
2022-09-23T15:16:15.363Z,71.3
2022-09-23T15:17:04.773Z,71.71
2022-09-23T15:22:36.474Z,71.51
2022-09-23T15:28:08.651Z,71.82
2022-09-23T15:33:40.068Z,71.06
2022-09-23T15:39:11.645Z,71.68
2022-09-23T15:44:43.369Z,73.02
2022-09-23T15:50:15.138Z,74.62
2022-09-23T15:55:46.859Z,76.5
2022-09-23T16:01:18.586Z,76.62
2022-09-23T16:06:50.324Z,76.94
2022-09-23T16:12:22.247Z,77.85
2022-09-23T16:18:00.207Z,78.74
2022-09-23T16:23:31.904Z,78.52
2022-09-23T16:29:03.879Z,79.87
2022-09-23T16:34:35.340Z,79.67
2022-09-23T16:40:07.149Z,79.97
2022-09-23T16:45:39.086Z,79.56
2022-09-23T16:51:10.497Z,79.0
2022-09-23T16:56:42.246Z,79.15
2022-09-23T17:02:14.184Z,79.82
2022-09-23T17:07:45.712Z,80.11
2022-09-23T17:13:17.430Z,79.11
2022-09-23T17:18:55.542Z,79.47
2022-09-23T17:24:27.325Z,79.67
2022-09-23T17:29:59.171Z,79.8
2022-09-23T17:35:30.811Z,80.3
2022-09-23T17:41:02.538Z,80.49
2022-09-23T17:46:34.352Z,80.4
2022-09-23T17:52:05.999Z,80.73
2022-09-23T17:57:37.727Z,80.34
2022-09-23T18:03:09.457Z,80.57
2022-09-23T18:08:41.201Z,81.02
2022-09-23T18:14:12.909Z,81.03
2022-09-23T18:19:48.986Z,81.69
2022-09-23T18:25:39.932Z,81.12
2022-09-23T18:30:52.520Z,82.12
2022-09-23T18:36:24.178Z,81.72
2022-09-23T18:41:55.933Z,81.72
2022-09-23T18:47:27.636Z,82.46
2022-09-23T18:52:59.407Z,82.16
2022-09-23T18:58:31.063Z,81.96
2022-09-23T19:04:02.767Z,82.53
2022-09-23T19:09:34.559Z,82.56
2022-09-23T19:15:06.272Z,82.44
2022-09-23T19:20:44.394Z,82.18
2022-09-23T19:26:16.167Z,83.68
2022-09-23T19:31:47.983Z,83.22
2022-09-23T19:37:19.572Z,83.13
2022-09-23T19:42:51.288Z,84.01
2022-09-23T19:48:23.011Z,83.59
2022-09-23T19:53:54.733Z,83.82
2022-09-23T19:59:26.581Z,84.21
2022-09-23T20:04:58.174Z,84.28
2022-09-23T20:10:29.880Z,84.91
2022-09-23T20:16:02.160Z,85.77
2022-09-23T20:21:37.804Z,85.45
2022-09-23T20:27:09.469Z,85.52
2022-09-23T20:32:45.084Z,85.09
2022-09-23T20:38:12.894Z,85.48
2022-09-23T20:43:44.602Z,85.95
2022-09-23T20:49:16.680Z,85.99
2022-09-23T20:54:48.094Z,86.62
2022-09-23T21:00:19.814Z,86.62
2022-09-23T21:05:51.656Z,87.11
2022-09-23T21:11:23.384Z,86.95
2022-09-23T21:16:55.163Z,87.36
2022-09-23T21:22:31.226Z,87.63
2022-09-23T21:28:02.997Z,88.03
2022-09-23T21:33:34.687Z,88.63
2022-09-23T21:39:06.466Z,88.77
2022-09-23T21:44:38.210Z,88.3
2022-09-23T21:50:10.067Z,88.69
2022-09-23T21:55:41.730Z,89.05
2022-09-23T22:01:13.583Z,89.23
2022-09-23T22:06:45.310Z,89.09
2022-09-23T22:12:16.878Z,89.45
2022-09-23T22:17:48.750Z,89.96
2022-09-23T22:23:24.710Z,89.52
2022-09-23T22:28:56.406Z,89.69
2022-09-23T22:34:50.345Z,89.96
2022-09-23T22:39:59.989Z,89.87
2022-09-23T22:45:31.657Z,90.7
2022-09-23T22:51:03.347Z,91.29
2022-09-23T22:56:35.117Z,91.03
2022-09-23T23:02:07.003Z,90.85
2022-09-23T23:07:38.494Z,91.11
2022-09-23T23:13:10.237Z,90.6
2022-09-23T23:18:41.917Z,90.08
2022-09-23T23:24:18.082Z,90.72
2022-09-23T23:29:49.810Z,90.18
2022-09-23T23:35:21.541Z,90.96
2022-09-23T23:40:53.334Z,91.14
2022-09-23T23:46:25.198Z,90.7
2022-09-23T23:51:56.700Z,90.88
2022-09-23T23:57:28.458Z,91.12
